sensor_id;sensor_type;location;lat;lon;timestamp;P1;durP1;ratioP1;P2;durP2;ratioP2
74939;SDS011;63505;45.226;37.908;2023-07-31T00:01:24;17.83;;;11.15;;
74939;SDS011;63505;45.226;37.908;2023-07-31T00:03:49;20.50;;;12.13;;
74939;SDS011;63505;45.226;37.908;2023-07-31T00:06:15;25.13;;;11.35;;
74939;SDS011;63505;45.226;37.908;2023-07-31T00:08:41;22.15;;;11.25;;
74939;SDS011;63505;45.226;37.908;2023-07-31T00:11:07;20.00;;;12.50;;
74939;SDS011;63505;45.226;37.908;2023-07-31T00:13:33;21.65;;;12.05;;
74939;SDS011;63505;45.226;37.908;2023-07-31T00:15:59;18.50;;;11.88;;
74939;SDS011;63505;45.226;37.908;2023-07-31T00:18:25;17.23;;;10.98;;
74939;SDS011;63505;45.226;37.908;2023-07-31T00:20:51;25.60;;;12.13;;
74939;SDS011;63505;45.226;37.908;2023-07-31T00:23:16;17.63;;;10.90;;
74939;SDS011;63505;45.226;37.908;2023-07-31T00:25:42;18.15;;;11.77;;
74939;SDS011;63505;45.226;37.908;2023-07-31T00:28:08;17.05;;;11.15;;
74939;SDS011;63505;45.226;37.908;2023-07-31T00:30:34;17.98;;;12.57;;
74939;SDS011;63505;45.226;37.908;2023-07-31T00:33:00;16.83;;;11.23;;
74939;SDS011;63505;45.226;37.908;2023-07-31T00:35:26;17.75;;;10.30;;
74939;SDS011;63505;45.226;37.908;2023-07-31T00:37:51;17.05;;;12.02;;
74939;SDS011;63505;45.226;37.908;2023-07-31T00:40:17;15.80;;;10.18;;
74939;SDS011;63505;45.226;37.908;2023-07-31T00:42:43;18.65;;;10.45;;
74939;SDS011;63505;45.226;37.908;2023-07-31T00:45:09;19.20;;;10.35;;
74939;SDS011;63505;45.226;37.908;2023-07-31T00:47:35;21.33;;;11.48;;
74939;SDS011;63505;45.226;37.908;2023-07-31T00:50:01;22.85;;;11.45;;
74939;SDS011;63505;45.226;37.908;2023-07-31T00:52:27;16.15;;;10.82;;
74939;SDS011;63505;45.226;37.908;2023-07-31T00:54:55;14.95;;;9.18;;
74939;SDS011;63505;45.226;37.908;2023-07-31T00:57:21;15.40;;;10.10;;
74939;SDS011;63505;45.226;37.908;2023-07-31T00:59:46;15.70;;;9.65;;
74939;SDS011;63505;45.226;37.908;2023-07-31T01:02:14;19.00;;;11.48;;
74939;SDS011;63505;45.226;37.908;2023-07-31T01:04:41;16.58;;;10.38;;
74939;SDS011;63505;45.226;37.908;2023-07-31T01:07:18;16.40;;;10.35;;
74939;SDS011;63505;45.226;37.908;2023-07-31T01:10:02;23.55;;;11.88;;
74939;SDS011;63505;45.226;37.908;2023-07-31T01:12:34;22.67;;;11.88;;
74939;SDS011;63505;45.226;37.908;2023-07-31T01:15:07;28.45;;;10.73;;
74939;SDS011;63505;45.226;37.908;2023-07-31T01:17:38;17.23;;;11.40;;
74939;SDS011;63505;45.226;37.908;2023-07-31T01:20:16;20.05;;;12.18;;
74939;SDS011;63505;45.226;37.908;2023-07-31T01:26:13;16.77;;;11.05;;
74939;SDS011;63505;45.226;37.908;2023-07-31T01:31:48;16.85;;;10.95;;
74939;SDS011;63505;45.226;37.908;2023-07-31T01:34:17;13.00;;;9.82;;
74939;SDS011;63505;45.226;37.908;2023-07-31T01:36:44;15.10;;;10.00;;
74939;SDS011;63505;45.226;37.908;2023-07-31T01:39:10;14.18;;;9.50;;
74939;SDS011;63505;45.226;37.908;2023-07-31T01:41:36;15.15;;;9.60;;
74939;SDS011;63505;45.226;37.908;2023-07-31T01:44:02;15.32;;;10.02;;
74939;SDS011;63505;45.226;37.908;2023-07-31T01:46:28;13.20;;;9.05;;
74939;SDS011;63505;45.226;37.908;2023-07-31T01:48:55;13.40;;;9.82;;
74939;SDS011;63505;45.226;37.908;2023-07-31T01:51:21;14.38;;;9.50;;
74939;SDS011;63505;45.226;37.908;2023-07-31T01:53:47;13.20;;;9.95;;
74939;SDS011;63505;45.226;37.908;2023-07-31T01:56:13;13.95;;;8.90;;
74939;SDS011;63505;45.226;37.908;2023-07-31T01:58:38;13.38;;;8.55;;
74939;SDS011;63505;45.226;37.908;2023-07-31T02:01:04;14.43;;;9.93;;
74939;SDS011;63505;45.226;37.908;2023-07-31T02:05:59;12.88;;;8.38;;
74939;SDS011;63505;45.226;37.908;2023-07-31T02:08:24;10.73;;;8.73;;
74939;SDS011;63505;45.226;37.908;2023-07-31T02:10:51;12.35;;;8.23;;
74939;SDS011;63505;45.226;37.908;2023-07-31T02:13:17;11.25;;;8.13;;
74939;SDS011;63505;45.226;37.908;2023-07-31T02:15:43;12.63;;;8.00;;
74939;SDS011;63505;45.226;37.908;2023-07-31T02:18:10;12.30;;;7.50;;
74939;SDS011;63505;45.226;37.908;2023-07-31T02:20:36;11.57;;;7.32;;
74939;SDS011;63505;45.226;37.908;2023-07-31T02:23:02;10.02;;;7.30;;
74939;SDS011;63505;45.226;37.908;2023-07-31T02:25:28;10.85;;;7.82;;
74939;SDS011;63505;45.226;37.908;2023-07-31T02:27:54;12.32;;;8.52;;
74939;SDS011;63505;45.226;37.908;2023-07-31T02:30:20;15.13;;;7.72;;
74939;SDS011;63505;45.226;37.908;2023-07-31T02:32:45;17.23;;;10.35;;
74939;SDS011;63505;45.226;37.908;2023-07-31T02:35:11;31.15;;;18.00;;
74939;SDS011;63505;45.226;37.908;2023-07-31T02:37:40;36.20;;;19.50;;
74939;SDS011;63505;45.226;37.908;2023-07-31T02:40:09;36.03;;;17.80;;
74939;SDS011;63505;45.226;37.908;2023-07-31T02:42:35;36.03;;;20.77;;
74939;SDS011;63505;45.226;37.908;2023-07-31T02:45:01;43.03;;;21.52;;
74939;SDS011;63505;45.226;37.908;2023-07-31T02:47:27;38.50;;;21.30;;
74939;SDS011;63505;45.226;37.908;2023-07-31T02:49:53;43.22;;;22.77;;
74939;SDS011;63505;45.226;37.908;2023-07-31T02:52:20;41.38;;;22.02;;
74939;SDS011;63505;45.226;37.908;2023-07-31T02:54:46;46.55;;;25.08;;
74939;SDS011;63505;45.226;37.908;2023-07-31T02:57:12;49.40;;;25.67;;
74939;SDS011;63505;45.226;37.908;2023-07-31T02:59:38;50.17;;;24.27;;
74939;SDS011;63505;45.226;37.908;2023-07-31T03:02:03;38.78;;;19.63;;
74939;SDS011;63505;45.226;37.908;2023-07-31T03:04:29;35.30;;;19.20;;
74939;SDS011;63505;45.226;37.908;2023-07-31T03:06:55;32.22;;;18.85;;
74939;SDS011;63505;45.226;37.908;2023-07-31T03:09:21;32.08;;;15.38;;
74939;SDS011;63505;45.226;37.908;2023-07-31T03:11:47;28.70;;;15.93;;
74939;SDS011;63505;45.226;37.908;2023-07-31T03:14:13;29.70;;;15.90;;
74939;SDS011;63505;45.226;37.908;2023-07-31T03:16:38;20.33;;;13.40;;
74939;SDS011;63505;45.226;37.908;2023-07-31T03:19:04;26.92;;;13.60;;
74939;SDS011;63505;45.226;37.908;2023-07-31T03:21:30;19.13;;;13.27;;
74939;SDS011;63505;45.226;37.908;2023-07-31T03:23:56;20.67;;;13.80;;
74939;SDS011;63505;45.226;37.908;2023-07-31T03:26:22;18.92;;;13.00;;
74939;SDS011;63505;45.226;37.908;2023-07-31T03:28:48;15.95;;;11.77;;
74939;SDS011;63505;45.226;37.908;2023-07-31T03:31:14;19.52;;;12.05;;
74939;SDS011;63505;45.226;37.908;2023-07-31T03:33:40;18.35;;;13.25;;
74939;SDS011;63505;45.226;37.908;2023-07-31T03:36:06;20.63;;;13.48;;
74939;SDS011;63505;45.226;37.908;2023-07-31T03:38:33;24.90;;;14.07;;
74939;SDS011;63505;45.226;37.908;2023-07-31T03:41:00;28.95;;;16.88;;
74939;SDS011;63505;45.226;37.908;2023-07-31T03:43:26;67.57;;;40.60;;
74939;SDS011;63505;45.226;37.908;2023-07-31T03:45:51;55.90;;;36.78;;
74939;SDS011;63505;45.226;37.908;2023-07-31T03:48:17;51.28;;;29.58;;
74939;SDS011;63505;45.226;37.908;2023-07-31T03:50:43;47.42;;;29.63;;
74939;SDS011;63505;45.226;37.908;2023-07-31T03:53:09;41.45;;;24.90;;
74939;SDS011;63505;45.226;37.908;2023-07-31T03:55:35;22.48;;;15.38;;
74939;SDS011;63505;45.226;37.908;2023-07-31T03:58:01;19.77;;;12.30;;
74939;SDS011;63505;45.226;37.908;2023-07-31T04:00:27;25.30;;;16.13;;
74939;SDS011;63505;45.226;37.908;2023-07-31T04:02:53;20.10;;;12.75;;
74939;SDS011;63505;45.226;37.908;2023-07-31T04:05:19;17.25;;;12.10;;
74939;SDS011;63505;45.226;37.908;2023-07-31T04:07:45;15.52;;;9.43;;
74939;SDS011;63505;45.226;37.908;2023-07-31T04:10:11;11.43;;;8.05;;
74939;SDS011;63505;45.226;37.908;2023-07-31T04:12:37;11.02;;;8.95;;
74939;SDS011;63505;45.226;37.908;2023-07-31T04:15:03;10.82;;;7.55;;
74939;SDS011;63505;45.226;37.908;2023-07-31T04:17:29;13.13;;;7.22;;
74939;SDS011;63505;45.226;37.908;2023-07-31T04:19:54;14.10;;;9.95;;
74939;SDS011;63505;45.226;37.908;2023-07-31T04:22:20;13.30;;;8.77;;
74939;SDS011;63505;45.226;37.908;2023-07-31T04:24:46;15.82;;;9.43;;
74939;SDS011;63505;45.226;37.908;2023-07-31T04:27:12;8.75;;;6.40;;
74939;SDS011;63505;45.226;37.908;2023-07-31T04:29:38;7.80;;;5.25;;
74939;SDS011;63505;45.226;37.908;2023-07-31T04:32:05;13.95;;;9.05;;
74939;SDS011;63505;45.226;37.908;2023-07-31T04:34:31;15.13;;;10.65;;
74939;SDS011;63505;45.226;37.908;2023-07-31T04:36:58;14.77;;;9.38;;
74939;SDS011;63505;45.226;37.908;2023-07-31T04:39:25;10.32;;;7.38;;
74939;SDS011;63505;45.226;37.908;2023-07-31T04:41:51;6.97;;;4.90;;
74939;SDS011;63505;45.226;37.908;2023-07-31T04:44:16;9.50;;;5.20;;
74939;SDS011;63505;45.226;37.908;2023-07-31T04:46:42;7.88;;;4.95;;
74939;SDS011;63505;45.226;37.908;2023-07-31T04:49:08;7.72;;;5.03;;
74939;SDS011;63505;45.226;37.908;2023-07-31T04:51:34;6.38;;;5.07;;
74939;SDS011;63505;45.226;37.908;2023-07-31T04:54:00;6.38;;;5.32;;
74939;SDS011;63505;45.226;37.908;2023-07-31T04:56:26;8.30;;;4.97;;
74939;SDS011;63505;45.226;37.908;2023-07-31T04:58:51;6.75;;;5.03;;
74939;SDS011;63505;45.226;37.908;2023-07-31T05:01:17;8.77;;;5.00;;
74939;SDS011;63505;45.226;37.908;2023-07-31T05:03:43;6.13;;;4.22;;
74939;SDS011;63505;45.226;37.908;2023-07-31T05:06:09;6.88;;;4.60;;
74939;SDS011;63505;45.226;37.908;2023-07-31T05:08:35;8.15;;;4.78;;
74939;SDS011;63505;45.226;37.908;2023-07-31T05:11:01;8.60;;;4.88;;
74939;SDS011;63505;45.226;37.908;2023-07-31T05:13:28;7.55;;;4.47;;
74939;SDS011;63505;45.226;37.908;2023-07-31T05:15:54;6.03;;;3.70;;
74939;SDS011;63505;45.226;37.908;2023-07-31T05:18:19;9.18;;;4.40;;
74939;SDS011;63505;45.226;37.908;2023-07-31T05:20:45;8.80;;;4.70;;
74939;SDS011;63505;45.226;37.908;2023-07-31T05:23:11;7.68;;;4.25;;
74939;SDS011;63505;45.226;37.908;2023-07-31T05:25:37;8.15;;;3.92;;
74939;SDS011;63505;45.226;37.908;2023-07-31T05:28:03;5.57;;;4.07;;
74939;SDS011;63505;45.226;37.908;2023-07-31T05:30:29;6.15;;;4.65;;
74939;SDS011;63505;45.226;37.908;2023-07-31T05:32:56;6.55;;;4.20;;
74939;SDS011;63505;45.226;37.908;2023-07-31T05:35:22;7.85;;;4.38;;
74939;SDS011;63505;45.226;37.908;2023-07-31T05:37:48;7.72;;;4.15;;
74939;SDS011;63505;45.226;37.908;2023-07-31T05:40:14;7.50;;;4.63;;
74939;SDS011;63505;45.226;37.908;2023-07-31T05:42:40;7.13;;;4.45;;
74939;SDS011;63505;45.226;37.908;2023-07-31T05:45:06;9.32;;;4.65;;
74939;SDS011;63505;45.226;37.908;2023-07-31T05:47:32;8.88;;;4.88;;
74939;SDS011;63505;45.226;37.908;2023-07-31T05:49:59;7.53;;;4.50;;
74939;SDS011;63505;45.226;37.908;2023-07-31T05:52:24;8.05;;;5.55;;
74939;SDS011;63505;45.226;37.908;2023-07-31T05:54:50;8.55;;;5.03;;
74939;SDS011;63505;45.226;37.908;2023-07-31T05:57:16;7.55;;;5.13;;
74939;SDS011;63505;45.226;37.908;2023-07-31T05:59:42;9.27;;;4.95;;
74939;SDS011;63505;45.226;37.908;2023-07-31T06:02:08;24.08;;;5.53;;
74939;SDS011;63505;45.226;37.908;2023-07-31T06:04:34;6.63;;;4.90;;
74939;SDS011;63505;45.226;37.908;2023-07-31T06:07:00;8.30;;;4.35;;
74939;SDS011;63505;45.226;37.908;2023-07-31T06:09:25;7.57;;;4.80;;
74939;SDS011;63505;45.226;37.908;2023-07-31T06:11:51;9.50;;;5.32;;
74939;SDS011;63505;45.226;37.908;2023-07-31T06:14:17;6.78;;;4.20;;
74939;SDS011;63505;45.226;37.908;2023-07-31T06:16:44;7.75;;;5.20;;
74939;SDS011;63505;45.226;37.908;2023-07-31T06:19:10;7.55;;;5.78;;
74939;SDS011;63505;45.226;37.908;2023-07-31T06:21:36;7.55;;;4.50;;
74939;SDS011;63505;45.226;37.908;2023-07-31T06:24:07;10.13;;;5.25;;
74939;SDS011;63505;45.226;37.908;2023-07-31T06:26:33;9.27;;;4.72;;
74939;SDS011;63505;45.226;37.908;2023-07-31T06:28:59;7.68;;;4.70;;
74939;SDS011;63505;45.226;37.908;2023-07-31T06:31:25;8.60;;;5.10;;
74939;SDS011;63505;45.226;37.908;2023-07-31T06:33:52;10.25;;;4.45;;
74939;SDS011;63505;45.226;37.908;2023-07-31T06:36:18;8.27;;;4.88;;
74939;SDS011;63505;45.226;37.908;2023-07-31T06:38:44;7.38;;;4.30;;
74939;SDS011;63505;45.226;37.908;2023-07-31T06:41:10;8.25;;;4.45;;
74939;SDS011;63505;45.226;37.908;2023-07-31T06:43:36;7.50;;;3.70;;
74939;SDS011;63505;45.226;37.908;2023-07-31T06:46:05;6.80;;;3.75;;
74939;SDS011;63505;45.226;37.908;2023-07-31T06:48:32;7.85;;;3.80;;
74939;SDS011;63505;45.226;37.908;2023-07-31T06:51:00;7.32;;;3.75;;
74939;SDS011;63505;45.226;37.908;2023-07-31T06:53:26;9.25;;;4.53;;
74939;SDS011;63505;45.226;37.908;2023-07-31T06:55:52;7.03;;;4.30;;
74939;SDS011;63505;45.226;37.908;2023-07-31T06:58:18;7.28;;;4.53;;
74939;SDS011;63505;45.226;37.908;2023-07-31T07:00:44;5.07;;;3.63;;
74939;SDS011;63505;45.226;37.908;2023-07-31T07:03:10;7.90;;;3.85;;
74939;SDS011;63505;45.226;37.908;2023-07-31T07:05:35;5.75;;;3.90;;
74939;SDS011;63505;45.226;37.908;2023-07-31T07:08:01;9.98;;;3.83;;
74939;SDS011;63505;45.226;37.908;2023-07-31T07:10:27;8.13;;;4.45;;
74939;SDS011;63505;45.226;37.908;2023-07-31T07:12:53;8.20;;;3.95;;
74939;SDS011;63505;45.226;37.908;2023-07-31T07:15:20;8.15;;;3.83;;
74939;SDS011;63505;45.226;37.908;2023-07-31T07:17:46;5.40;;;3.55;;
74939;SDS011;63505;45.226;37.908;2023-07-31T07:20:12;6.40;;;4.20;;
74939;SDS011;63505;45.226;37.908;2023-07-31T07:22:38;7.22;;;3.25;;
74939;SDS011;63505;45.226;37.908;2023-07-31T07:25:04;5.95;;;3.90;;
74939;SDS011;63505;45.226;37.908;2023-07-31T07:27:30;6.78;;;3.22;;
74939;SDS011;63505;45.226;37.908;2023-07-31T07:29:56;5.53;;;3.55;;
74939;SDS011;63505;45.226;37.908;2023-07-31T07:32:22;7.07;;;3.40;;
74939;SDS011;63505;45.226;37.908;2023-07-31T07:34:48;6.43;;;4.10;;
74939;SDS011;63505;45.226;37.908;2023-07-31T07:37:14;8.75;;;3.28;;
74939;SDS011;63505;45.226;37.908;2023-07-31T07:39:40;7.65;;;3.75;;
74939;SDS011;63505;45.226;37.908;2023-07-31T07:42:06;6.32;;;4.47;;
74939;SDS011;63505;45.226;37.908;2023-07-31T07:44:32;4.53;;;3.80;;
74939;SDS011;63505;45.226;37.908;2023-07-31T07:46:58;11.10;;;3.75;;
74939;SDS011;63505;45.226;37.908;2023-07-31T07:49:24;6.55;;;3.67;;
74939;SDS011;63505;45.226;37.908;2023-07-31T07:51:50;6.70;;;4.47;;
74939;SDS011;63505;45.226;37.908;2023-07-31T07:54:16;5.80;;;4.13;;
74939;SDS011;63505;45.226;37.908;2023-07-31T07:56:42;6.57;;;3.40;;
74939;SDS011;63505;45.226;37.908;2023-07-31T07:59:08;9.35;;;3.33;;
74939;SDS011;63505;45.226;37.908;2023-07-31T08:01:34;8.02;;;3.88;;
74939;SDS011;63505;45.226;37.908;2023-07-31T08:04:00;10.95;;;3.72;;
74939;SDS011;63505;45.226;37.908;2023-07-31T08:06:26;5.55;;;3.40;;
74939;SDS011;63505;45.226;37.908;2023-07-31T08:08:52;4.80;;;3.53;;
74939;SDS011;63505;45.226;37.908;2023-07-31T08:11:18;8.27;;;4.50;;
74939;SDS011;63505;45.226;37.908;2023-07-31T08:13:43;15.35;;;4.10;;
74939;SDS011;63505;45.226;37.908;2023-07-31T08:16:09;9.85;;;3.38;;
74939;SDS011;63505;45.226;37.908;2023-07-31T08:18:35;5.82;;;3.80;;
74939;SDS011;63505;45.226;37.908;2023-07-31T08:21:02;4.35;;;3.25;;
74939;SDS011;63505;45.226;37.908;2023-07-31T08:23:28;3.78;;;2.17;;
74939;SDS011;63505;45.226;37.908;2023-07-31T08:25:54;5.38;;;2.90;;
74939;SDS011;63505;45.226;37.908;2023-07-31T08:28:20;4.28;;;2.90;;
74939;SDS011;63505;45.226;37.908;2023-07-31T08:30:45;5.63;;;3.22;;
74939;SDS011;63505;45.226;37.908;2023-07-31T08:33:11;4.90;;;3.10;;
74939;SDS011;63505;45.226;37.908;2023-07-31T08:35:37;6.22;;;3.00;;
74939;SDS011;63505;45.226;37.908;2023-07-31T08:38:03;4.55;;;2.50;;
74939;SDS011;63505;45.226;37.908;2023-07-31T08:40:29;6.93;;;2.75;;
74939;SDS011;63505;45.226;37.908;2023-07-31T08:42:55;4.07;;;2.80;;
74939;SDS011;63505;45.226;37.908;2023-07-31T08:45:22;3.80;;;2.83;;
74939;SDS011;63505;45.226;37.908;2023-07-31T08:47:49;5.53;;;3.53;;
74939;SDS011;63505;45.226;37.908;2023-07-31T08:50:17;5.20;;;3.60;;
74939;SDS011;63505;45.226;37.908;2023-07-31T08:52:50;7.35;;;2.83;;
74939;SDS011;63505;45.226;37.908;2023-07-31T08:55:16;4.57;;;3.13;;
74939;SDS011;63505;45.226;37.908;2023-07-31T08:57:43;6.47;;;3.88;;
74939;SDS011;63505;45.226;37.908;2023-07-31T09:00:11;6.15;;;3.22;;
74939;SDS011;63505;45.226;37.908;2023-07-31T09:02:46;4.10;;;2.60;;
74939;SDS011;63505;45.226;37.908;2023-07-31T09:05:19;4.63;;;2.40;;
74939;SDS011;63505;45.226;37.908;2023-07-31T09:07:47;5.93;;;4.35;;
74939;SDS011;63505;45.226;37.908;2023-07-31T09:10:14;5.03;;;3.45;;
74939;SDS011;63505;45.226;37.908;2023-07-31T09:12:39;4.07;;;2.60;;
74939;SDS011;63505;45.226;37.908;2023-07-31T09:15:06;4.85;;;3.28;;
74939;SDS011;63505;45.226;37.908;2023-07-31T09:17:33;8.02;;;2.90;;
74939;SDS011;63505;45.226;37.908;2023-07-31T09:20:17;4.50;;;3.00;;
74939;SDS011;63505;45.226;37.908;2023-07-31T09:22:45;6.53;;;3.58;;
74939;SDS011;63505;45.226;37.908;2023-07-31T09:25:16;4.18;;;2.67;;
74939;SDS011;63505;45.226;37.908;2023-07-31T09:30:14;4.47;;;3.22;;
74939;SDS011;63505;45.226;37.908;2023-07-31T09:32:40;6.75;;;3.00;;
74939;SDS011;63505;45.226;37.908;2023-07-31T09:35:20;5.32;;;3.50;;
74939;SDS011;63505;45.226;37.908;2023-07-31T09:37:51;7.15;;;2.70;;
74939;SDS011;63505;45.226;37.908;2023-07-31T09:42:53;4.38;;;3.00;;
74939;SDS011;63505;45.226;37.908;2023-07-31T09:45:22;5.18;;;3.67;;
74939;SDS011;63505;45.226;37.908;2023-07-31T09:47:48;4.25;;;3.33;;
74939;SDS011;63505;45.226;37.908;2023-07-31T09:50:14;4.13;;;3.22;;
74939;SDS011;63505;45.226;37.908;2023-07-31T09:52:43;4.55;;;3.45;;
74939;SDS011;63505;45.226;37.908;2023-07-31T09:55:09;4.03;;;2.95;;
74939;SDS011;63505;45.226;37.908;2023-07-31T09:57:37;5.97;;;3.30;;
74939;SDS011;63505;45.226;37.908;2023-07-31T10:00:07;5.97;;;3.83;;
74939;SDS011;63505;45.226;37.908;2023-07-31T10:02:37;7.13;;;3.55;;
74939;SDS011;63505;45.226;37.908;2023-07-31T10:05:04;4.47;;;3.33;;
74939;SDS011;63505;45.226;37.908;2023-07-31T10:07:33;5.80;;;2.92;;
74939;SDS011;63505;45.226;37.908;2023-07-31T10:10:04;6.43;;;3.58;;
74939;SDS011;63505;45.226;37.908;2023-07-31T10:12:32;5.78;;;3.30;;
74939;SDS011;63505;45.226;37.908;2023-07-31T10:14:59;9.75;;;3.63;;
74939;SDS011;63505;45.226;37.908;2023-07-31T10:17:26;6.70;;;3.50;;
74939;SDS011;63505;45.226;37.908;2023-07-31T10:19:52;6.97;;;3.00;;
74939;SDS011;63505;45.226;37.908;2023-07-31T10:22:19;4.60;;;3.08;;
74939;SDS011;63505;45.226;37.908;2023-07-31T10:24:46;6.30;;;4.13;;
74939;SDS011;63505;45.226;37.908;2023-07-31T10:27:13;5.53;;;3.03;;
74939;SDS011;63505;45.226;37.908;2023-07-31T10:29:39;6.55;;;3.75;;
74939;SDS011;63505;45.226;37.908;2023-07-31T10:32:09;7.90;;;3.92;;
74939;SDS011;63505;45.226;37.908;2023-07-31T10:34:38;6.70;;;3.13;;
74939;SDS011;63505;45.226;37.908;2023-07-31T10:45:31;6.10;;;3.25;;
74939;SDS011;63505;45.226;37.908;2023-07-31T10:48:04;5.78;;;3.33;;
74939;SDS011;63505;45.226;37.908;2023-07-31T10:50:54;4.22;;;3.30;;
74939;SDS011;63505;45.226;37.908;2023-07-31T10:53:32;3.95;;;3.25;;
74939;SDS011;63505;45.226;37.908;2023-07-31T10:55:58;5.82;;;3.50;;
74939;SDS011;63505;45.226;37.908;2023-07-31T10:58:29;3.78;;;2.70;;
74939;SDS011;63505;45.226;37.908;2023-07-31T11:00:57;4.43;;;3.42;;
74939;SDS011;63505;45.226;37.908;2023-07-31T11:06:29;4.45;;;2.85;;
74939;SDS011;63505;45.226;37.908;2023-07-31T11:08:55;4.35;;;3.17;;
74939;SDS011;63505;45.226;37.908;2023-07-31T11:11:21;5.88;;;2.97;;
74939;SDS011;63505;45.226;37.908;2023-07-31T11:13:48;5.47;;;3.00;;
74939;SDS011;63505;45.226;37.908;2023-07-31T11:16:15;6.05;;;3.30;;
74939;SDS011;63505;45.226;37.908;2023-07-31T11:18:44;5.80;;;3.47;;
74939;SDS011;63505;45.226;37.908;2023-07-31T11:21:11;6.72;;;3.60;;
74939;SDS011;63505;45.226;37.908;2023-07-31T11:23:44;5.50;;;3.08;;
74939;SDS011;63505;45.226;37.908;2023-07-31T11:26:12;5.85;;;3.65;;
74939;SDS011;63505;45.226;37.908;2023-07-31T11:28:37;4.03;;;3.20;;
74939;SDS011;63505;45.226;37.908;2023-07-31T11:31:04;4.70;;;3.58;;
74939;SDS011;63505;45.226;37.908;2023-07-31T11:33:30;4.13;;;2.90;;
74939;SDS011;63505;45.226;37.908;2023-07-31T11:35:56;4.78;;;3.40;;
74939;SDS011;63505;45.226;37.908;2023-07-31T11:38:26;6.70;;;2.95;;
74939;SDS011;63505;45.226;37.908;2023-07-31T11:40:52;5.20;;;3.80;;
74939;SDS011;63505;45.226;37.908;2023-07-31T11:43:19;4.75;;;2.70;;
74939;SDS011;63505;45.226;37.908;2023-07-31T11:45:48;5.10;;;3.58;;
74939;SDS011;63505;45.226;37.908;2023-07-31T11:48:21;5.63;;;3.22;;
74939;SDS011;63505;45.226;37.908;2023-07-31T11:50:53;3.45;;;2.53;;
74939;SDS011;63505;45.226;37.908;2023-07-31T11:53:25;6.43;;;3.30;;
74939;SDS011;63505;45.226;37.908;2023-07-31T11:55:56;3.00;;;2.45;;
74939;SDS011;63505;45.226;37.908;2023-07-31T11:58:24;5.80;;;2.70;;
74939;SDS011;63505;45.226;37.908;2023-07-31T12:00:51;10.13;;;3.67;;
74939;SDS011;63505;45.226;37.908;2023-07-31T12:03:17;8.27;;;3.42;;
74939;SDS011;63505;45.226;37.908;2023-07-31T12:05:44;6.00;;;3.10;;
74939;SDS011;63505;45.226;37.908;2023-07-31T12:08:12;4.32;;;3.00;;
74939;SDS011;63505;45.226;37.908;2023-07-31T12:10:38;4.82;;;2.50;;
74939;SDS011;63505;45.226;37.908;2023-07-31T12:13:11;5.10;;;2.58;;
74939;SDS011;63505;45.226;37.908;2023-07-31T12:15:45;4.28;;;2.42;;
74939;SDS011;63505;45.226;37.908;2023-07-31T12:18:12;5.40;;;3.15;;
74939;SDS011;63505;45.226;37.908;2023-07-31T12:23:07;6.55;;;2.92;;
74939;SDS011;63505;45.226;37.908;2023-07-31T12:25:33;3.83;;;2.47;;
74939;SDS011;63505;45.226;37.908;2023-07-31T12:28:05;3.97;;;2.60;;
74939;SDS011;63505;45.226;37.908;2023-07-31T12:30:36;3.50;;;2.45;;
74939;SDS011;63505;45.226;37.908;2023-07-31T12:33:10;4.78;;;3.63;;
74939;SDS011;63505;45.226;37.908;2023-07-31T12:35:40;5.70;;;2.75;;
74939;SDS011;63505;45.226;37.908;2023-07-31T12:38:11;4.93;;;2.30;;
74939;SDS011;63505;45.226;37.908;2023-07-31T12:40:39;4.65;;;2.88;;
74939;SDS011;63505;45.226;37.908;2023-07-31T12:43:07;5.05;;;2.92;;
74939;SDS011;63505;45.226;37.908;2023-07-31T12:45:33;9.05;;;3.08;;
74939;SDS011;63505;45.226;37.908;2023-07-31T12:47:59;4.57;;;2.80;;
74939;SDS011;63505;45.226;37.908;2023-07-31T12:50:26;6.15;;;2.67;;
74939;SDS011;63505;45.226;37.908;2023-07-31T12:52:55;6.65;;;3.45;;
74939;SDS011;63505;45.226;37.908;2023-07-31T12:55:22;6.75;;;2.42;;
74939;SDS011;63505;45.226;37.908;2023-07-31T12:57:49;5.25;;;3.00;;
74939;SDS011;63505;45.226;37.908;2023-07-31T13:00:16;6.53;;;2.65;;
74939;SDS011;63505;45.226;37.908;2023-07-31T13:02:42;4.43;;;2.63;;
74939;SDS011;63505;45.226;37.908;2023-07-31T13:05:08;5.07;;;3.22;;
74939;SDS011;63505;45.226;37.908;2023-07-31T13:07:34;5.53;;;3.40;;
74939;SDS011;63505;45.226;37.908;2023-07-31T13:10:00;6.15;;;3.22;;
74939;SDS011;63505;45.226;37.908;2023-07-31T13:12:26;5.22;;;3.10;;
74939;SDS011;63505;45.226;37.908;2023-07-31T13:14:52;4.32;;;2.50;;
74939;SDS011;63505;45.226;37.908;2023-07-31T13:17:18;4.85;;;2.72;;
74939;SDS011;63505;45.226;37.908;2023-07-31T13:19:44;4.00;;;3.50;;
74939;SDS011;63505;45.226;37.908;2023-07-31T13:22:10;4.60;;;2.83;;
74939;SDS011;63505;45.226;37.908;2023-07-31T13:24:36;5.13;;;3.22;;
74939;SDS011;63505;45.226;37.908;2023-07-31T13:27:01;4.40;;;2.65;;
74939;SDS011;63505;45.226;37.908;2023-07-31T13:29:28;4.50;;;2.97;;
74939;SDS011;63505;45.226;37.908;2023-07-31T13:31:55;5.80;;;3.35;;
74939;SDS011;63505;45.226;37.908;2023-07-31T13:34:21;5.18;;;3.38;;
74939;SDS011;63505;45.226;37.908;2023-07-31T13:36:47;9.20;;;5.00;;
74939;SDS011;63505;45.226;37.908;2023-07-31T13:39:13;5.30;;;3.05;;
74939;SDS011;63505;45.226;37.908;2023-07-31T13:41:38;6.32;;;3.20;;
74939;SDS011;63505;45.226;37.908;2023-07-31T13:44:04;7.75;;;3.20;;
74939;SDS011;63505;45.226;37.908;2023-07-31T13:46:31;4.40;;;2.92;;
74939;SDS011;63505;45.226;37.908;2023-07-31T13:48:58;4.25;;;3.25;;
74939;SDS011;63505;45.226;37.908;2023-07-31T13:51:25;9.00;;;3.25;;
74939;SDS011;63505;45.226;37.908;2023-07-31T13:53:52;4.90;;;3.30;;
74939;SDS011;63505;45.226;37.908;2023-07-31T13:56:18;4.72;;;2.95;;
74939;SDS011;63505;45.226;37.908;2023-07-31T13:58:44;4.43;;;2.50;;
74939;SDS011;63505;45.226;37.908;2023-07-31T14:01:10;5.25;;;2.42;;
74939;SDS011;63505;45.226;37.908;2023-07-31T14:03:36;3.50;;;2.90;;
74939;SDS011;63505;45.226;37.908;2023-07-31T14:06:02;5.32;;;2.45;;
74939;SDS011;63505;45.226;37.908;2023-07-31T14:08:28;3.60;;;2.28;;
74939;SDS011;63505;45.226;37.908;2023-07-31T14:10:55;6.10;;;2.58;;
74939;SDS011;63505;45.226;37.908;2023-07-31T14:13:21;4.10;;;3.70;;
74939;SDS011;63505;45.226;37.908;2023-07-31T14:15:47;4.15;;;2.78;;
74939;SDS011;63505;45.226;37.908;2023-07-31T14:18:13;5.72;;;2.60;;
74939;SDS011;63505;45.226;37.908;2023-07-31T14:20:39;5.97;;;2.78;;
74939;SDS011;63505;45.226;37.908;2023-07-31T14:23:05;6.13;;;2.13;;
74939;SDS011;63505;45.226;37.908;2023-07-31T14:25:31;3.38;;;2.67;;
74939;SDS011;63505;45.226;37.908;2023-07-31T14:27:57;7.03;;;2.80;;
74939;SDS011;63505;45.226;37.908;2023-07-31T14:30:23;5.82;;;3.03;;
74939;SDS011;63505;45.226;37.908;2023-07-31T14:32:49;4.47;;;2.83;;
74939;SDS011;63505;45.226;37.908;2023-07-31T14:35:15;8.07;;;2.80;;
74939;SDS011;63505;45.226;37.908;2023-07-31T14:37:41;4.05;;;3.08;;
74939;SDS011;63505;45.226;37.908;2023-07-31T14:40:09;10.85;;;3.28;;
74939;SDS011;63505;45.226;37.908;2023-07-31T14:42:36;8.02;;;2.88;;
74939;SDS011;63505;45.226;37.908;2023-07-31T14:45:04;4.90;;;2.83;;
74939;SDS011;63505;45.226;37.908;2023-07-31T14:47:31;5.40;;;2.60;;
74939;SDS011;63505;45.226;37.908;2023-07-31T14:49:57;5.03;;;2.40;;
74939;SDS011;63505;45.226;37.908;2023-07-31T14:52:24;5.75;;;2.92;;
74939;SDS011;63505;45.226;37.908;2023-07-31T14:54:50;4.68;;;3.33;;